Time;durP1;ratioP1;P1;durP2;ratioP2;P2;SDS_P1;SDS_P2;PMS_P1;PMS_P2;Temp;Humidity;BMP_temperature;BMP_pressure;BME280_temperature;BME280_humidity;BME280_pressure;Samples;Min_cycle;Max_cycle;Signal;HPM_P1;HPM_P2
2021/09/26 00:00:22;;;;;;;9.80;7.90;;;;;;;15.09;84.46;100788.67;93843;1195;81725;-60
2021/09/26 00:02:44;;;;;;;12.50;9.10;;;;;;;14.99;84.46;100791.52;93838;1196;99131;-61
2021/09/26 00:04:51;;;;;;;10.40;8.50;;;;;;;14.93;84.30;100794.19;93866;1196;87611;-61
2021/09/26 00:06:55;;;;;;;10.90;8.50;;;;;;;14.84;84.48;100795.73;93822;1196;94145;-60
2021/09/26 00:09:00;;;;;;;9.50;8.30;;;;;;;14.75;84.46;100795.50;93733;1196;82418;-71
2021/09/26 00:11:06;;;;;;;9.90;8.40;;;;;;;14.69;84.46;100795.67;93814;1195;80803;-72
2021/09/26 00:13:10;;;;;;;9.70;8.60;;;;;;;14.65;84.50;100797.47;93874;1195;98307;-72
2021/09/26 00:15:19;;;;;;;10.00;8.50;;;;;;;14.60;84.52;100802.63;93861;1196;88333;-59
2021/09/26 00:17:23;;;;;;;10.60;9.20;;;;;;;14.50;84.50;100806.08;93663;1196;94780;-61
2021/09/26 00:19:28;;;;;;;10.20;8.80;;;;;;;14.44;84.62;100805.73;93834;1195;80340;-61
2021/09/26 00:21:32;;;;;;;10.30;8.40;;;;;;;14.38;84.51;100802.66;93858;1195;80717;-61
2021/09/26 00:23:37;;;;;;;10.30;9.30;;;;;;;14.34;84.57;100809.95;93808;1195;97200;-61
2021/09/26 00:25:42;;;;;;;10.60;8.60;;;;;;;14.31;84.59;100809.41;93827;1196;86671;-72
2021/09/26 00:27:46;;;;;;;10.90;9.40;;;;;;;14.27;84.59;100811.31;93863;1195;94976;-72
2021/09/26 00:29:50;;;;;;;10.70;9.20;;;;;;;14.11;84.79;100805.19;93860;1195;80288;-71
2021/09/26 00:31:54;;;;;;;10.40;9.30;;;;;;;14.05;84.61;100810.80;93824;1195;81120;-71
2021/09/26 00:34:01;;;;;;;10.00;8.70;;;;;;;14.00;84.57;100806.30;93830;1195;97801;-73
2021/09/26 00:36:06;;;;;;;11.10;9.00;;;;;;;13.95;84.63;100810.55;93723;1197;85873;-74
2021/09/26 00:38:11;;;;;;;11.30;9.20;;;;;;;13.91;84.63;100808.98;93899;1195;93552;-75
2021/09/26 00:40:16;;;;;;;12.30;9.80;;;;;;;13.86;84.77;100812.75;93762;1196;78916;-61
2021/09/26 00:42:20;;;;;;;12.20;9.50;;;;;;;13.79;84.87;100810.33;93875;1195;80342;-60
2021/09/26 00:44:24;;;;;;;10.80;9.40;;;;;;;13.74;84.85;100815.33;93838;1195;98707;-75
2021/09/26 00:46:31;;;;;;;10.00;8.50;;;;;;;13.69;84.86;100814.98;93884;1195;86499;-74
2021/09/26 00:48:37;;;;;;;10.00;8.70;;;;;;;13.61;84.71;100816.52;93873;1196;94458;-75
2021/09/26 00:50:42;;;;;;;10.60;9.40;;;;;;;13.53;84.79;100816.30;93826;1196;78734;-61
2021/09/26 00:52:48;;;;;;;12.40;9.70;;;;;;;13.45;84.75;100820.67;93867;1196;81682;-60
2021/09/26 00:54:55;;;;;;;10.60;9.50;;;;;;;13.39;84.82;100819.41;93783;1196;98329;-59
2021/09/26 00:57:00;;;;;;;10.20;9.00;;;;;;;13.33;84.83;100821.95;93834;1196;87097;-63
2021/09/26 00:59:04;;;;;;;10.00;9.00;;;;;;;13.29;84.88;100821.64;93843;1196;95500;-61
2021/09/26 01:01:09;;;;;;;10.60;9.30;;;;;;;13.24;84.73;100822.96;93807;1195;78607;-60
2021/09/26 01:03:13;;;;;;;10.60;9.40;;;;;;;13.19;84.94;100823.27;93856;1196;80669;-61
2021/09/26 01:05:19;;;;;;;11.40;10.10;;;;;;;13.15;84.95;100819.46;93702;1196;99099;-60
2021/09/26 01:07:32;;;;;;;11.00;9.10;;;;;;;13.05;84.95;100820.83;93810;1195;88580;-60
2021/09/26 01:09:53;;;;;;;10.30;8.10;;;;;;;12.98;84.87;100822.70;93822;1196;94806;-72
2021/09/26 01:12:12;;;;;;;9.90;8.50;;;;;;;12.89;84.90;100823.66;93871;1195;81231;-74
2021/09/26 01:14:26;;;;;;;11.50;9.50;;;;;;;12.88;85.02;100825.42;93889;1195;82223;-60
2021/09/26 01:16:40;;;;;;;12.30;8.50;;;;;;;12.83;85.08;100820.41;93845;1195;98871;-61
2021/09/26 01:18:57;;;;;;;10.10;8.50;;;;;;;12.79;85.03;100826.95;93870;1195;88857;-61
2021/09/26 01:21:11;;;;;;;10.60;9.20;;;;;;;12.74;85.05;100825.14;93900;1196;93851;-65
2021/09/26 01:23:56;;;;;;;10.80;8.30;;;;;;;12.68;84.99;100825.42;93877;1195;81170;-61
2021/09/26 01:26:17;;;;;;;11.50;8.70;;;;;;;12.60;84.97;100824.52;93724;1196;81017;-61
2021/09/26 01:28:42;;;;;;;9.90;8.40;;;;;;;12.57;85.07;100823.80;93861;1196;99241;-61
2021/09/26 01:30:53;;;;;;;10.80;9.20;;;;;;;12.54;85.18;100831.96;93826;1195;87893;-75
2021/09/26 01:33:05;;;;;;;12.00;9.20;;;;;;;12.46;85.18;100831.46;93720;1196;94454;-74
2021/09/26 01:35:14;;;;;;;9.70;8.70;;;;;;;12.40;85.20;100832.73;93803;1196;80967;-73
2021/09/26 01:37:26;;;;;;;10.60;7.90;;;;;;;12.35;85.12;100832.26;93790;1196;80194;-74
2021/09/26 01:39:46;;;;;;;11.20;8.50;;;;;;;12.33;85.19;100838.70;93680;1197;98325;-59
2021/09/26 01:42:04;;;;;;;10.10;8.60;;;;;;;12.29;85.29;100837.42;93781;1195;88898;-61
2021/09/26 01:44:18;;;;;;;9.70;8.30;;;;;;;12.27;85.24;100840.56;93741;1196;94925;-73
2021/09/26 01:46:30;;;;;;;10.50;9.00;;;;;;;12.16;85.11;100844.63;93781;1196;80305;-72
2021/09/26 01:48:43;;;;;;;10.80;8.30;;;;;;;12.07;85.06;100842.81;93831;1196;80868;-72
2021/09/26 01:50:52;;;;;;;9.50;8.20;;;;;;;12.01;85.06;100850.04;93820;1195;99700;-60
2021/09/26 01:52:58;;;;;;;12.20;8.30;;;;;;;11.95;85.16;100853.59;93863;1196;86641;-60
2021/09/26 01:55:06;;;;;;;10.20;8.40;;;;;;;11.90;85.30;100850.21;93804;1196;95656;-62
2021/09/26 01:57:11;;;;;;;10.20;8.60;;;;;;;11.90;85.32;100852.70;93820;1196;81472;-59
2021/09/26 01:59:19;;;;;;;11.00;8.50;;;;;;;11.88;85.25;100857.80;93887;1196;82971;-62
2021/09/26 02:01:24;;;;;;;11.50;9.00;;;;;;;11.87;85.26;100860.52;93878;1196;99262;-64
2021/09/26 02:03:30;;;;;;;11.40;9.20;;;;;;;11.83;85.35;100865.60;93824;1196;87583;-61
2021/09/26 02:05:38;;;;;;;12.50;9.80;;;;;;;11.82;85.46;100868.67;93841;1196;92875;-61
2021/09/26 02:07:47;;;;;;;10.80;8.90;;;;;;;11.80;85.43;100869.13;93799;1195;80489;-62
2021/09/26 02:09:51;;;;;;;9.90;8.50;;;;;;;11.74;85.35;100868.24;93748;1196;81689;-60
2021/09/26 02:11:56;;;;;;;10.00;8.50;;;;;;;11.67;85.29;100868.83;93860;1196;100310;-60
2021/09/26 02:14:01;;;;;;;9.90;8.40;;;;;;;11.60;85.32;100866.60;93802;1195;87670;-72
2021/09/26 02:16:08;;;;;;;9.30;8.40;;;;;;;11.54;85.40;100869.54;93762;1196;95658;-73
2021/09/26 02:18:17;;;;;;;10.30;8.40;;;;;;;11.47;85.41;100869.46;93817;1196;78330;-74
2021/09/26 02:20:22;;;;;;;13.10;8.30;;;;;;;11.41;85.48;100866.89;93831;1196;81917;-73
2021/09/26 02:22:27;;;;;;;11.30;8.40;;;;;;;11.36;85.41;100872.72;93828;1195;98949;-71
2021/09/26 02:24:32;;;;;;;9.90;7.80;;;;;;;11.31;85.40;100871.27;93867;1196;87782;-71
2021/09/26 02:26:37;;;;;;;10.10;8.70;;;;;;;11.25;85.46;100876.99;93799;1196;94863;-70
2021/09/26 02:28:41;;;;;;;11.90;7.90;;;;;;;11.23;85.49;100871.30;93823;1196;79000;-71
2021/09/26 02:30:46;;;;;;;10.30;8.50;;;;;;;11.22;85.58;100871.08;93831;1196;81205;-61
2021/09/26 02:32:51;;;;;;;10.00;8.90;;;;;;;11.18;85.56;100875.71;93773;1196;100129;-59
2021/09/26 02:34:55;;;;;;;9.00;8.10;;;;;;;11.15;85.52;100881.27;93777;1196;87902;-60
2021/09/26 02:36:59;;;;;;;8.50;7.10;;;;;;;11.09;85.42;100878.77;93767;1196;94993;-63
2021/09/26 02:39:06;;;;;;;8.80;7.90;;;;;;;11.04;85.46;100882.74;93718;1196;78284;-70
2021/09/26 02:41:23;;;;;;;9.10;7.50;;;;;;;10.99;85.46;100881.16;93802;1191;82874;-74
2021/09/26 02:43:40;;;;;;;9.00;7.80;;;;;;;10.96;85.60;100882.41;93860;1196;98131;-71
2021/09/26 02:45:49;;;;;;;9.80;7.80;;;;;;;10.96;85.55;100886.05;93855;1196;88531;-61
2021/09/26 02:47:58;;;;;;;9.50;8.50;;;;;;;10.95;85.65;100886.23;93801;1196;93624;-60
2021/09/26 02:50:03;;;;;;;11.10;8.80;;;;;;;10.92;85.61;100886.48;93777;1196;78663;-72
2021/09/26 02:52:09;;;;;;;10.30;8.40;;;;;;;10.93;85.72;100885.94;93824;1196;80761;-71
2021/09/26 02:54:15;;;;;;;8.50;7.60;;;;;;;10.91;85.73;100886.33;93778;1196;99289;-71
2021/09/26 02:56:22;;;;;;;10.30;8.20;;;;;;;10.86;85.69;100888.93;93747;1196;87812;-72
2021/09/26 02:58:26;;;;;;;10.10;8.00;;;;;;;10.77;85.67;100891.72;93773;1196;94624;-73
2021/09/26 03:00:37;;;;;;;10.20;7.70;;;;;;;10.71;85.70;100895.30;93800;1196;80444;-72
2021/09/26 03:02:45;;;;;;;12.40;7.70;;;;;;;10.70;85.66;100895.52;93836;1196;80762;-72
2021/09/26 03:04:49;;;;;;;9.60;7.70;;;;;;;10.67;85.81;100897.55;93819;1196;99084;-73
2021/09/26 03:06:53;;;;;;;8.80;7.40;;;;;;;10.64;85.86;100900.68;93733;1196;88287;-72
2021/09/26 03:08:58;;;;;;;9.20;7.50;;;;;;;10.60;85.95;100902.52;93796;1196;93110;-72
2021/09/26 03:11:03;;;;;;;8.50;7.50;;;;;;;10.60;86.00;100902.06;93750;1196;80993;-74
2021/09/26 03:13:08;;;;;;;10.20;7.30;;;;;;;10.58;85.87;100901.56;93793;1196;80736;-74
2021/09/26 03:15:13;;;;;;;8.40;7.20;;;;;;;10.52;85.87;100903.45;93821;1188;97956;-72
2021/09/26 03:17:18;;;;;;;9.90;8.00;;;;;;;10.51;85.90;100904.00;93828;1195;88080;-73
2021/09/26 03:19:22;;;;;;;8.10;7.00;;;;;;;10.47;85.90;100903.54;93799;1196;96004;-73
2021/09/26 03:21:29;;;;;;;8.40;7.60;;;;;;;10.44;85.92;100905.92;93762;1195;78659;-73
2021/09/26 03:23:33;;;;;;;9.20;7.40;;;;;;;10.39;85.99;100907.60;93750;1196;81263;-74
2021/09/26 03:25:38;;;;;;;9.40;7.90;;;;;;;10.36;86.05;100908.84;93726;1196;99781;-61
2021/09/26 03:27:43;;;;;;;10.30;6.70;;;;;;;10.31;86.07;100908.55;93793;1196;86528;-62
2021/09/26 03:29:48;;;;;;;8.30;7.30;;;;;;;10.29;86.09;100911.78;93766;1196;94739;-73
2021/09/26 03:31:52;;;;;;;9.30;8.20;;;;;;;10.28;86.08;100906.09;93792;1189;79405;-72
2021/09/26 03:33:57;;;;;;;11.10;8.10;;;;;;;10.28;86.08;100911.20;93823;1196;81565;-71
2021/09/26 03:36:01;;;;;;;9.50;8.10;;;;;;;10.25;86.13;100905.56;93731;1196;100509;-70
2021/09/26 03:38:09;;;;;;;9.90;7.50;;;;;;;10.22;86.22;100907.91;93807;1196;88776;-71
2021/09/26 03:40:16;;;;;;;10.30;7.80;;;;;;;10.21;86.14;100910.75;93738;1196;95574;-60
2021/09/26 03:42:20;;;;;;;9.90;7.20;;;;;;;10.21;86.08;100911.83;93840;1195;78877;-61
2021/09/26 03:44:24;;;;;;;9.10;7.60;;;;;;;10.18;86.22;100913.13;93775;1196;81556;-60
2021/09/26 03:46:29;;;;;;;8.10;6.90;;;;;;;10.17;86.21;100917.70;93825;1196;99919;-61
2021/09/26 03:48:33;;;;;;;9.90;8.20;;;;;;;10.17;86.24;100916.62;93774;1196;87028;-61
2021/09/26 03:50:37;;;;;;;9.50;7.40;;;;;;;10.13;86.20;100923.19;93759;1196;94495;-72
2021/09/26 03:52:42;;;;;;;10.80;7.50;;;;;;;10.08;86.19;100923.63;93799;1196;79674;-73
2021/09/26 03:54:46;;;;;;;9.10;7.20;;;;;;;10.04;86.14;100927.83;93813;1196;79858;-60
2021/09/26 03:56:51;;;;;;;10.70;7.30;;;;;;;10.00;86.23;100929.94;93754;1196;99124;-60
2021/09/26 03:58:58;;;;;;;10.80;7.30;;;;;;;9.94;86.33;100927.63;93817;1196;88226;-72
2021/09/26 04:01:05;;;;;;;8.50;7.00;;;;;;;9.92;86.44;100922.67;93762;1196;93231;-72
2021/09/26 04:03:09;;;;;;;8.70;7.10;;;;;;;9.90;86.48;100921.09;93679;1196;79891;-72
2021/09/26 04:05:14;;;;;;;7.90;6.40;;;;;;;9.89;86.49;100924.63;93680;1196;82778;-72
2021/09/26 04:07:19;;;;;;;8.60;7.00;;;;;;;9.89;86.52;100924.27;93770;1196;100784;-60
2021/09/26 04:09:23;;;;;;;10.60;7.90;;;;;;;9.88;86.57;100924.29;93810;1196;86882;-61
2021/09/26 04:11:27;;;;;;;8.40;6.90;;;;;;;9.87;86.68;100929.86;93753;1195;95628;-60
2021/09/26 04:13:31;;;;;;;10.10;7.40;;;;;;;9.89;86.68;100929.39;93796;1196;79873;-60
2021/09/26 04:15:36;;;;;;;9.70;7.70;;;;;;;9.93;86.73;100935.29;93771;1196;81273;-71
2021/09/26 04:17:41;;;;;;;9.30;7.40;;;;;;;9.96;86.81;100937.11;93770;1196;98101;-73
2021/09/26 04:19:45;;;;;;;10.50;8.00;;;;;;;10.01;86.92;100935.64;93692;1196;88870;-73
2021/09/26 04:21:50;;;;;;;11.20;7.40;;;;;;;10.05;86.91;100935.02;93717;1196;95269;-72
2021/09/26 04:23:55;;;;;;;10.70;7.40;;;;;;;10.07;86.93;100932.04;93779;1196;78318;-62
2021/09/26 04:26:02;;;;;;;9.30;8.00;;;;;;;10.10;87.01;100934.82;93666;1196;82297;-61
2021/09/26 04:28:08;;;;;;;11.80;8.30;;;;;;;10.10;86.98;100938.42;93790;1195;98666;-61
2021/09/26 04:30:14;;;;;;;9.20;7.50;;;;;;;10.12;87.06;100939.70;93778;1196;88818;-72
2021/09/26 04:32:19;;;;;;;8.80;7.60;;;;;;;10.10;87.13;100939.09;93813;1196;93805;-73
2021/09/26 04:34:26;;;;;;;9.50;7.80;;;;;;;10.13;87.27;100937.80;93800;1195;77704;-61
2021/09/26 04:36:31;;;;;;;11.10;8.40;;;;;;;10.15;87.17;100938.57;93760;1196;81688;-64
2021/09/26 04:38:35;;;;;;;10.20;8.20;;;;;;;10.16;87.15;100940.13;93748;1196;99240;-62
2021/09/26 04:40:41;;;;;;;8.50;7.60;;;;;;;10.15;87.09;100942.89;93730;1196;88158;-60
2021/09/26 04:42:46;;;;;;;10.60;7.40;;;;;;;10.14;87.07;100941.23;93747;1196;94816;-60
2021/09/26 04:44:53;;;;;;;10.10;8.00;;;;;;;10.14;87.02;100939.77;93732;1196;79615;-73
2021/09/26 04:46:57;;;;;;;10.20;8.20;;;;;;;10.14;87.14;100940.90;93766;1196;82298;-74
2021/09/26 04:49:01;;;;;;;9.10;7.90;;;;;;;10.15;87.06;100940.36;93721;1196;98999;-71
2021/09/26 04:51:06;;;;;;;11.00;8.20;;;;;;;10.16;87.07;100940.63;93739;1196;87890;-73
2021/09/26 04:53:10;;;;;;;12.70;8.20;;;;;;;10.15;87.04;100943.93;93738;1196;93606;-74
2021/09/26 04:55:14;;;;;;;8.60;7.70;;;;;;;10.20;87.04;100943.48;93748;1196;80226;-70
2021/09/26 04:57:18;;;;;;;11.50;7.40;;;;;;;10.20;87.07;100947.73;93786;1195;80780;-61
2021/09/26 04:59:24;;;;;;;9.30;7.50;;;;;;;10.19;87.07;100952.56;93699;1196;99945;-61
2021/09/26 05:01:28;;;;;;;9.20;7.50;;;;;;;10.18;87.04;100956.48;93798;1196;88622;-61
2021/09/26 05:03:33;;;;;;;8.40;7.00;;;;;;;10.17;87.03;100956.04;93749;1196;95408;-61
2021/09/26 05:05:37;;;;;;;11.40;7.80;;;;;;;10.17;87.04;100955.48;93700;1196;81358;-61
2021/09/26 05:07:41;;;;;;;8.90;6.90;;;;;;;10.19;87.17;100955.94;93749;1196;81850;-60
2021/09/26 05:09:46;;;;;;;7.90;6.70;;;;;;;10.24;87.21;100956.70;93741;1195;99499;-73
2021/09/26 05:11:52;;;;;;;8.60;7.70;;;;;;;10.32;87.21;100959.64;93726;1196;87907;-72
2021/09/26 05:13:56;;;;;;;11.00;8.00;;;;;;;10.42;87.32;100964.67;93767;1195;93861;-61
2021/09/26 05:16:05;;;;;;;10.10;8.00;;;;;;;10.49;87.34;100965.96;93710;1196;81635;-59
2021/09/26 05:18:09;;;;;;;8.40;7.50;;;;;;;10.60;87.38;100963.83;93805;1196;80505;-63
2021/09/26 05:20:14;;;;;;;9.40;7.70;;;;;;;10.71;87.38;100965.84;93737;1196;100412;-74
2021/09/26 05:22:18;;;;;;;9.20;8.20;;;;;;;10.81;87.45;100963.89;93817;1196;85519;-73
2021/09/26 05:24:23;;;;;;;9.30;7.60;;;;;;;10.89;87.40;100965.13;93737;1196;94896;-60
2021/09/26 05:26:27;;;;;;;9.80;6.80;;;;;;;10.98;87.37;100966.77;93734;1196;79680;-60
2021/09/26 05:28:32;;;;;;;8.60;7.20;;;;;;;11.08;87.42;100966.49;93773;1196;82377;-63
2021/09/26 05:30:36;;;;;;;11.80;8.20;;;;;;;11.21;87.56;100965.98;93721;1196;100572;-72
2021/09/26 05:32:41;;;;;;;9.40;7.50;;;;;;;11.37;87.59;100963.46;93803;1196;87474;-72
2021/09/26 05:34:48;;;;;;;8.80;7.30;;;;;;;11.47;87.67;100964.15;93739;1196;95452;-72
2021/09/26 05:36:55;;;;;;;10.20;8.50;;;;;;;11.64;87.69;100966.16;93716;1196;78603;-71
2021/09/26 05:39:03;;;;;;;11.50;8.00;;;;;;;11.85;87.72;100971.23;93799;1196;80478;-71
2021/09/26 05:41:07;;;;;;;10.10;8.30;;;;;;;12.07;87.85;100969.19;93734;1195;100107;-73
2021/09/26 05:43:12;;;;;;;11.60;8.70;;;;;;;12.28;87.74;100968.25;93738;1196;88493;-72
2021/09/26 05:45:17;;;;;;;8.90;7.10;;;;;;;12.49;87.77;100973.41;93706;1196;94533;-72
2021/09/26 05:47:21;;;;;;;7.60;6.80;;;;;;;12.63;87.44;100978.61;93734;1196;80177;-72
2021/09/26 05:49:25;;;;;;;8.60;6.90;;;;;;;12.69;87.30;100979.10;93734;1195;81737;-72
2021/09/26 05:51:33;;;;;;;8.40;7.30;;;;;;;12.70;87.16;100982.91;93753;1195;98507;-72
2021/09/26 05:53:37;;;;;;;9.80;7.50;;;;;;;12.74;87.17;100984.22;93723;1196;88228;-71
2021/09/26 05:55:41;;;;;;;9.70;7.00;;;;;;;12.79;87.02;100985.38;93692;1195;94744;-60
2021/09/26 05:57:45;;;;;;;10.60;6.50;;;;;;;12.86;86.79;100988.42;93766;1196;80842;-59
2021/09/26 05:59:51;;;;;;;9.20;6.70;;;;;;;12.93;86.69;100989.42;93756;1196;82105;-62
2021/09/26 06:01:55;;;;;;;11.50;6.70;;;;;;;13.00;86.70;100991.88;93750;1196;100221;-61
2021/09/26 06:03:59;;;;;;;9.30;7.00;;;;;;;13.04;86.53;100987.05;93716;1196;87184;-71
2021/09/26 06:06:03;;;;;;;9.30;6.70;;;;;;;13.03;86.60;100986.61;93767;1196;93726;-72
2021/09/26 06:08:08;;;;;;;7.00;6.10;;;;;;;13.06;86.44;100987.47;93748;1196;79526;-73
2021/09/26 06:10:13;;;;;;;9.20;6.40;;;;;;;13.10;86.25;100992.58;93772;1195;83206;-62
2021/09/26 06:12:18;;;;;;;9.60;6.30;;;;;;;13.15;86.33;100990.33;93808;1196;100221;-62
2021/09/26 06:14:22;;;;;;;8.80;6.80;;;;;;;13.23;86.21;100989.38;93815;1196;86986;-61
2021/09/26 06:16:27;;;;;;;10.80;6.50;;;;;;;13.29;86.27;100990.13;93695;1196;94895;-60
2021/09/26 06:18:32;;;;;;;8.50;6.60;;;;;;;13.38;86.38;100990.84;93735;1196;82446;-60
2021/09/26 06:20:36;;;;;;;7.30;6.40;;;;;;;13.53;86.42;100991.11;93679;1196;82193;-72
2021/09/26 06:22:41;;;;;;;9.20;6.30;;;;;;;13.68;86.41;100997.52;93667;1196;99314;-71
2021/09/26 06:24:48;;;;;;;8.30;6.80;;;;;;;13.83;86.38;101000.80;93752;1196;87926;-72
2021/09/26 06:26:53;;;;;;;10.20;7.70;;;;;;;13.99;86.31;101003.94;93861;1196;93239;-72
2021/09/26 06:28:57;;;;;;;8.70;7.80;;;;;;;14.13;86.25;101005.09;93705;1196;81012;-70
2021/09/26 06:31:01;;;;;;;9.20;7.20;;;;;;;14.23;86.24;101003.99;93758;1196;81801;-70
2021/09/26 06:33:06;;;;;;;11.00;7.90;;;;;;;14.30;86.06;101007.56;93764;1195;99223;-75
2021/09/26 06:35:13;;;;;;;12.80;8.00;;;;;;;14.37;86.04;101012.27;93779;1196;88870;-74
2021/09/26 06:37:17;;;;;;;10.40;8.30;;;;;;;14.47;85.90;101012.64;93702;1196;94127;-73
2021/09/26 06:39:22;;;;;;;11.50;8.40;;;;;;;14.54;85.76;101009.27;93689;1196;79798;-74
2021/09/26 06:41:26;;;;;;;10.40;7.90;;;;;;;14.57;85.73;101018.67;93726;1196;81351;-74
2021/09/26 06:43:30;;;;;;;10.60;8.00;;;;;;;14.66;85.83;101023.17;93750;1196;99196;-74
2021/09/26 06:45:35;;;;;;;8.40;7.60;;;;;;;14.76;85.49;101026.98;93740;1196;89218;-74
2021/09/26 06:47:40;;;;;;;7.50;6.60;;;;;;;14.85;85.31;101028.49;93713;1196;95103;-73
2021/09/26 06:49:44;;;;;;;11.40;7.10;;;;;;;14.98;85.18;101030.14;93758;1196;79756;-60
2021/09/26 06:51:48;;;;;;;10.00;7.00;;;;;;;15.09;85.18;101032.55;93771;1196;81967;-61
2021/09/26 06:53:53;;;;;;;9.90;7.40;;;;;;;15.15;85.37;101040.73;93794;1196;101036;-63
2021/09/26 06:55:57;;;;;;;11.50;7.70;;;;;;;15.30;85.36;101040.16;93763;1196;87926;-60
2021/09/26 06:58:01;;;;;;;11.90;7.70;;;;;;;15.48;85.43;101043.75;93733;1196;93556;-61
2021/09/26 07:00:09;;;;;;;9.30;7.70;;;;;;;15.66;85.39;101049.41;93729;1195;82050;-60
2021/09/26 07:02:17;;;;;;;13.40;8.20;;;;;;;15.83;85.51;101048.20;93773;1196;82160;-60
2021/09/26 07:04:25;;;;;;;12.00;8.10;;;;;;;16.05;85.50;101046.20;93708;1195;99314;-74
2021/09/26 07:06:29;;;;;;;11.00;7.00;;;;;;;16.25;85.45;101046.99;93765;1195;87255;-74
2021/09/26 07:08:34;;;;;;;12.10;7.70;;;;;;;16.43;85.37;101051.71;93766;1196;93966;-75
2021/09/26 07:10:38;;;;;;;11.50;6.10;;;;;;;16.58;85.20;101052.98;93724;1196;79587;-60
2021/09/26 07:12:42;;;;;;;10.80;6.80;;;;;;;16.76;84.92;101054.98;93756;1196;80945;-60
2021/09/26 07:14:47;;;;;;;10.70;6.70;;;;;;;16.93;84.75;101056.02;93701;1196;98271;-73
2021/09/26 07:16:52;;;;;;;8.30;5.30;;;;;;;17.12;84.49;101062.42;93780;1195;88612;-73
2021/09/26 07:18:56;;;;;;;10.20;5.40;;;;;;;17.07;83.43;101057.48;93673;1197;94213;-62
2021/09/26 07:21:00;;;;;;;10.60;5.50;;;;;;;17.08;83.25;101059.27;93753;1195;78411;-60
2021/09/26 07:23:04;;;;;;;14.00;6.00;;;;;;;17.20;83.34;101059.27;93785;1195;80938;-61
2021/09/26 07:25:10;;;;;;;12.20;5.50;;;;;;;17.33;83.01;101062.70;93759;1195;98552;-60
2021/09/26 07:27:18;;;;;;;10.80;5.60;;;;;;;17.36;82.53;101064.84;93781;1196;88153;-60
2021/09/26 07:29:23;;;;;;;10.30;5.80;;;;;;;17.39;82.30;101068.56;93820;1195;92970;-61
2021/09/26 07:31:27;;;;;;;11.70;6.20;;;;;;;17.48;82.20;101071.73;93727;1196;79864;-60
2021/09/26 07:33:35;;;;;;;12.50;6.60;;;;;;;17.53;82.00;101070.30;93771;1196;81879;-60
2021/09/26 07:35:39;;;;;;;11.40;6.20;;;;;;;17.58;81.39;101071.60;93717;1195;99966;-60
2021/09/26 07:37:44;;;;;;;11.90;7.10;;;;;;;17.68;81.52;101073.48;93815;1195;88102;-59
2021/09/26 07:39:48;;;;;;;14.40;6.90;;;;;;;17.82;81.50;101075.88;93721;1196;94218;-60
2021/09/26 07:41:55;;;;;;;8.70;6.30;;;;;;;17.94;81.39;101081.39;93766;1196;78505;-60
2021/09/26 07:44:00;;;;;;;14.30;7.10;;;;;;;18.05;81.18;101082.91;93760;1195;80472;-60
2021/09/26 07:46:04;;;;;;;10.60;6.80;;;;;;;18.15;81.02;101082.84;93681;1195;99740;-61
2021/09/26 07:48:09;;;;;;;17.70;8.00;;;;;;;18.25;80.90;101080.77;93701;1195;86624;-60
2021/09/26 07:50:16;;;;;;;16.00;7.10;;;;;;;18.39;80.71;101082.27;93728;1195;94650;-60
2021/09/26 07:52:20;;;;;;;14.80;7.70;;;;;;;18.61;80.60;101082.13;93749;1196;80425;-61
2021/09/26 07:54:24;;;;;;;13.50;7.00;;;;;;;18.78;80.16;101086.64;93744;1196;81633;-60
2021/09/26 07:56:29;;;;;;;15.50;8.00;;;;;;;18.99;79.81;101086.16;93771;1196;100625;-61
2021/09/26 07:58:33;;;;;;;14.10;6.70;;;;;;;19.22;79.27;101085.05;93795;1195;87325;-61
2021/09/26 08:00:40;;;;;;;15.50;7.70;;;;;;;19.40;78.74;101091.92;93722;1184;94193;-60
2021/09/26 08:02:44;;;;;;;12.80;6.30;;;;;;;19.61;78.19;101095.20;93659;1196;79991;-60
2021/09/26 08:04:49;;;;;;;13.80;7.10;;;;;;;20.05;77.82;101094.44;93649;1196;81751;-61
2021/09/26 08:06:53;;;;;;;17.20;7.40;;;;;;;20.51;77.32;101092.28;93645;1197;100510;-59
2021/09/26 08:08:57;;;;;;;12.70;6.80;;;;;;;20.83;76.76;101095.50;93687;1196;89049;-74
2021/09/26 08:11:05;;;;;;;10.10;5.50;;;;;;;20.93;75.80;101097.73;93678;1196;94058;-73
2021/09/26 08:13:12;;;;;;;10.40;5.30;;;;;;;21.09;75.42;101098.56;93684;1196;81019;-73
2021/09/26 08:15:18;;;;;;;11.20;5.50;;;;;;;21.34;74.60;101106.06;93741;1196;81551;-72
2021/09/26 08:17:22;;;;;;;13.50;6.90;;;;;;;21.89;74.10;101100.01;93807;1196;98232;-73
2021/09/26 08:19:27;;;;;;;14.00;6.70;;;;;;;22.46;72.61;101095.52;93790;1196;86808;-74
2021/09/26 08:21:31;;;;;;;10.90;5.90;;;;;;;23.14;71.18;101093.26;93760;1196;93513;-74
2021/09/26 08:23:35;;;;;;;10.80;6.00;;;;;;;23.62;70.46;101093.81;93768;1196;78820;-72
2021/09/26 08:25:40;;;;;;;8.70;5.30;;;;;;;24.30;69.38;101095.27;93736;1196;82821;-73
2021/09/26 08:27:44;;;;;;;7.40;4.40;;;;;;;25.38;68.24;101092.44;93769;1196;99365;-74
2021/09/26 08:29:48;;;;;;;8.40;5.00;;;;;;;26.68;66.37;101093.98;93724;1196;87927;-73
2021/09/26 08:31:53;;;;;;;10.00;5.60;;;;;;;27.59;64.76;101092.98;93727;1196;94657;-73
2021/09/26 08:33:58;;;;;;;8.50;5.70;;;;;;;28.28;63.02;101092.65;93705;1197;79659;-60
2021/09/26 08:36:02;;;;;;;7.60;4.60;;;;;;;28.50;60.90;101096.14;93751;1196;81724;-59
2021/09/26 08:38:06;;;;;;;12.00;5.60;;;;;;;28.35;59.97;101098.92;93785;1196;99689;-60
2021/09/26 08:40:14;;;;;;;11.00;5.30;;;;;;;27.64;58.79;101101.01;93785;1195;88294;-72
2021/09/26 08:42:18;;;;;;;11.10;5.80;;;;;;;26.77;58.46;101100.19;93700;1196;93417;-71
2021/09/26 08:44:27;;;;;;;9.20;5.00;;;;;;;26.18;58.42;101108.55;93744;1195;79838;-60
2021/09/26 08:46:33;;;;;;;11.50;5.00;;;;;;;25.62;58.29;101108.56;93794;1196;81760;-61
2021/09/26 08:48:39;;;;;;;9.00;5.50;;;;;;;25.00;58.25;101109.11;93747;1196;98142;-60
2021/09/26 08:50:46;;;;;;;11.20;5.70;;;;;;;24.37;58.51;101107.80;93732;1196;88483;-60
2021/09/26 08:52:52;;;;;;;11.00;4.90;;;;;;;23.96;59.06;101104.98;93741;1195;93814;-61
2021/09/26 08:54:56;;;;;;;9.60;5.40;;;;;;;23.70;59.81;101105.92;93682;1196;77455;-61
2021/09/26 08:57:01;;;;;;;12.90;5.70;;;;;;;23.66;60.36;101107.71;93766;1195;83032;-60
2021/09/26 08:59:05;;;;;;;11.00;6.80;;;;;;;23.81;60.31;101110.90;93767;1196;99565;-73
2021/09/26 09:01:13;;;;;;;13.20;6.40;;;;;;;24.30;60.50;101108.66;93723;1196;87313;-64
2021/09/26 09:03:17;;;;;;;11.10;6.40;;;;;;;25.31;60.59;101105.47;93710;1196;94333;-66
2021/09/26 09:05:33;;;;;;;12.40;7.10;;;;;;;26.15;58.95;101109.77;93712;1196;79819;-66
2021/09/26 09:07:40;;;;;;;13.40;7.70;;;;;;;26.66;57.65;101105.25;93740;1195;82088;-68
2021/09/26 09:09:56;;;;;;;13.50;6.40;;;;;;;26.73;56.94;101102.52;93761;1195;97740;-79
2021/09/26 09:12:03;;;;;;;11.10;6.10;;;;;;;26.36;56.34;101106.09;93748;1195;87884;-78
2021/09/26 09:14:08;;;;;;;12.50;6.90;;;;;;;26.11;56.21;101108.76;93745;1195;94081;-78
2021/09/26 09:16:15;;;;;;;11.10;6.40;;;;;;;25.50;55.39;101103.96;93750;1195;78412;-65
2021/09/26 09:18:20;;;;;;;10.70;6.00;;;;;;;24.88;55.79;101105.71;93749;1196;81118;-66
2021/09/26 09:20:29;;;;;;;8.80;5.10;;;;;;;24.68;56.35;101106.11;93738;1196;98131;-77
2021/09/26 09:22:34;;;;;;;11.00;5.30;;;;;;;24.76;56.08;101103.34;93811;1195;86987;-77
2021/09/26 09:24:42;;;;;;;12.50;5.60;;;;;;;24.67;56.29;101107.32;93751;1195;94054;-79
2021/09/26 09:26:48;;;;;;;11.90;6.10;;;;;;;25.20;56.67;101104.37;93735;1195;78447;-65
2021/09/26 09:28:53;;;;;;;8.80;5.20;;;;;;;25.49;55.94;101106.62;93750;1195;79694;-73
2021/09/26 09:31:00;;;;;;;11.50;4.90;;;;;;;25.33;55.57;101102.48;93802;1180;101267;-66
2021/09/26 09:33:06;;;;;;;10.30;5.00;;;;;;;25.24;55.62;101100.52;93753;1195;87662;-67
2021/09/26 09:35:21;;;;;;;9.00;5.30;;;;;;;25.32;55.11;101103.77;93694;1195;94062;-66
2021/09/26 09:37:28;;;;;;;9.10;4.40;;;;;;;25.34;55.59;101105.93;93753;1195;79288;-67
2021/09/26 09:39:32;;;;;;;7.40;4.30;;;;;;;25.95;55.21;101105.11;93759;1195;82394;-67
2021/09/26 09:41:40;;;;;;;8.60;4.50;;;;;;;26.36;54.86;101103.98;93755;1196;100872;-66